Time;durP1;ratioP1;P1;durP2;ratioP2;P2;SDS_P1;SDS_P2;PMS_P1;PMS_P2;Temp;Humidity;BMP_temperature;BMP_pressure;BME280_temperature;BME280_humidity;BME280_pressure;Samples;Min_cycle;Max_cycle;Signal;HPM_P1;HPM_P2
2023/05/29 00:01:20;;;;;;;23.70;4.13;;;9.50;99.90;;;;;;5036962;28;20377;-64
2023/05/29 00:03:47;;;;;;;21.45;4.45;;;9.40;99.90;;;;;;5035144;28;20517;-64
2023/05/29 00:06:13;;;;;;;26.58;4.38;;;9.40;99.90;;;;;;5075969;28;20044;-65
2023/05/29 00:08:39;;;;;;;20.50;3.45;;;9.40;99.90;;;;;;5071635;28;20045;-64
2023/05/29 00:11:04;;;;;;;20.55;4.03;;;9.40;99.90;;;;;;5037829;28;20044;-64
2023/05/29 00:13:30;;;;;;;25.42;4.03;;;9.30;99.90;;;;;;5064107;28;20129;-64
2023/05/29 00:15:56;;;;;;;22.27;3.78;;;9.30;99.90;;;;;;5035950;28;20041;-64
2023/05/29 00:18:22;;;;;;;20.92;3.85;;;9.30;99.90;;;;;;5034785;28;20040;-64
2023/05/29 00:20:47;;;;;;;18.40;4.40;;;9.30;99.90;;;;;;5031414;28;20492;-64
2023/05/29 00:23:13;;;;;;;21.60;3.83;;;9.30;99.90;;;;;;5031968;28;20041;-65
2023/05/29 00:25:42;;;;;;;20.25;3.75;;;9.20;99.90;;;;;;5037898;28;20107;-64
2023/05/29 00:28:08;;;;;;;21.90;3.58;;;9.20;99.90;;;;;;5032085;28;20043;-64
2023/05/29 00:30:34;;;;;;;20.35;2.95;;;9.20;99.90;;;;;;5070435;28;20098;-64
2023/05/29 00:32:59;;;;;;;26.55;4.00;;;9.20;99.90;;;;;;5040032;28;20036;-64
2023/05/29 00:35:25;;;;;;;23.58;4.05;;;9.20;99.90;;;;;;5036852;28;20040;-65
2023/05/29 00:37:50;;;;;;;17.33;3.88;;;9.10;99.90;;;;;;5039225;28;21904;-64
2023/05/29 00:40:16;;;;;;;22.67;3.90;;;9.20;99.90;;;;;;5039171;28;20037;-64
2023/05/29 00:42:43;;;;;;;20.55;3.80;;;9.10;99.90;;;;;;5075653;28;20048;-64
2023/05/29 00:45:08;;;;;;;26.35;4.30;;;9.10;99.90;;;;;;5019234;28;20437;-64
2023/05/29 00:47:34;;;;;;;30.40;4.38;;;9.10;99.90;;;;;;5032974;28;20145;-65
2023/05/29 00:50:02;;;;;;;19.40;3.50;;;9.00;99.90;;;;;;5072297;28;20040;-65
2023/05/29 00:52:28;;;;;;;28.10;3.78;;;9.00;99.90;;;;;;5039133;28;20554;-64
2023/05/29 00:54:55;;;;;;;23.58;3.90;;;9.00;99.90;;;;;;5033496;28;20040;-64
2023/05/29 00:57:21;;;;;;;29.08;3.75;;;9.10;99.90;;;;;;5035658;28;20098;-64
2023/05/29 00:59:47;;;;;;;18.52;3.63;;;9.00;99.90;;;;;;5031588;28;20051;-65
2023/05/29 01:02:14;;;;;;;24.92;3.75;;;9.00;99.90;;;;;;5071501;28;20049;-64
2023/05/29 01:04:40;;;;;;;18.15;3.80;;;9.00;99.90;;;;;;5033386;28;20037;-64
2023/05/29 01:07:06;;;;;;;20.90;3.60;;;8.90;99.90;;;;;;5033144;28;20033;-64
2023/05/29 01:09:34;;;;;;;22.23;3.75;;;8.90;99.90;;;;;;5037523;28;20075;-64
2023/05/29 01:12:18;;;;;;;23.92;4.15;;;8.90;99.90;;;;;;5030691;28;20040;-65
2023/05/29 01:14:44;;;;;;;20.52;3.85;;;8.90;99.90;;;;;;5035494;28;20045;-64
2023/05/29 01:17:33;;;;;;;20.20;3.67;;;8.90;99.90;;;;;;5037853;28;20055;-65
2023/05/29 01:20:13;;;;;;;16.67;3.58;;;8.80;99.90;;;;;;5066497;28;20110;-64
2023/05/29 01:23:06;;;;;;;21.38;3.90;;;8.90;99.90;;;;;;5041004;28;20107;-64
2023/05/29 01:25:31;;;;;;;;;;;8.90;99.90;;;;;;5068757;28;20044;-65
2023/05/29 01:28:01;;;;;;;19.15;3.70;;;8.80;99.90;;;;;;5072188;28;20306;-64
2023/05/29 01:30:29;;;;;;;21.38;3.63;;;8.90;99.90;;;;;;5070787;28;20047;-65
2023/05/29 01:32:55;;;;;;;23.67;3.80;;;8.80;99.90;;;;;;5036728;28;20048;-65
2023/05/29 01:35:21;;;;;;;15.38;3.58;;;8.80;99.90;;;;;;5070327;28;20045;-64
2023/05/29 01:37:46;;;;;;;17.63;3.55;;;8.80;99.90;;;;;;5031596;28;20037;-65
2023/05/29 01:40:12;;;;;;;23.20;3.63;;;8.80;99.90;;;;;;5038523;28;20045;-64
2023/05/29 01:42:39;;;;;;;18.02;3.83;;;8.80;99.90;;;;;;5040536;28;20028;-64
2023/05/29 01:45:06;;;;;;;23.92;3.65;;;8.70;99.90;;;;;;5071138;28;20048;-64
2023/05/29 01:47:32;;;;;;;24.27;4.05;;;8.70;99.90;;;;;;5035246;28;20087;-64
2023/05/29 01:49:59;;;;;;;23.48;3.78;;;8.70;99.90;;;;;;5035933;28;20045;-64
2023/05/29 01:52:25;;;;;;;20.10;3.40;;;8.70;99.90;;;;;;5037222;28;20131;-64
2023/05/29 01:54:50;;;;;;;17.50;3.30;;;8.70;99.90;;;;;;5040218;28;20116;-64
2023/05/29 01:57:17;;;;;;;22.55;3.55;;;8.70;99.90;;;;;;5072914;28;20072;-65
2023/05/29 01:59:43;;;;;;;19.08;3.67;;;8.70;99.90;;;;;;5040872;28;20052;-64
2023/05/29 02:02:09;;;;;;;20.95;3.83;;;8.70;99.90;;;;;;5067721;28;20037;-64
2023/05/29 02:04:34;;;;;;;17.33;3.58;;;8.60;99.90;;;;;;5033709;28;20037;-64
2023/05/29 02:07:00;;;;;;;25.88;3.97;;;8.60;99.90;;;;;;5042269;28;20280;-65
2023/05/29 02:09:26;;;;;;;15.40;3.47;;;8.60;99.90;;;;;;5042634;28;20049;-64
2023/05/29 02:11:51;;;;;;;22.38;4.15;;;8.60;99.90;;;;;;5066923;28;20472;-64
2023/05/29 02:14:17;;;;;;;19.80;3.58;;;8.50;99.90;;;;;;5042416;28;20049;-65
2023/05/29 02:16:43;;;;;;;24.75;3.50;;;8.50;99.90;;;;;;5036112;28;20052;-65
2023/05/29 02:19:10;;;;;;;17.20;3.17;;;8.60;99.90;;;;;;5039685;28;20405;-64
2023/05/29 02:21:40;;;;;;;20.77;2.95;;;8.50;99.90;;;;;;5069456;28;20056;-64
2023/05/29 02:24:07;;;;;;;16.92;3.35;;;8.50;99.90;;;;;;5041431;28;20040;-64
2023/05/29 02:26:32;;;;;;;25.33;4.30;;;8.50;99.90;;;;;;5063768;28;20048;-65
2023/05/29 02:28:58;;;;;;;19.45;3.47;;;8.50;99.90;;;;;;5037974;28;20048;-64
2023/05/29 02:31:23;;;;;;;17.08;3.60;;;8.40;99.90;;;;;;5038129;28;20040;-65
2023/05/29 02:33:49;;;;;;;22.75;4.05;;;8.50;99.90;;;;;;5038340;28;20040;-64
2023/05/29 02:36:16;;;;;;;22.63;4.10;;;8.40;99.90;;;;;;5042018;28;20044;-65
2023/05/29 02:38:41;;;;;;;23.27;3.70;;;8.40;99.90;;;;;;5038449;28;20626;-64
2023/05/29 02:41:07;;;;;;;22.17;3.90;;;8.40;99.90;;;;;;5073526;28;20174;-64
2023/05/29 02:43:33;;;;;;;17.48;3.30;;;8.40;99.90;;;;;;5071882;28;20036;-64
2023/05/29 02:45:58;;;;;;;25.20;3.70;;;8.40;99.90;;;;;;5041527;28;20479;-64
2023/05/29 02:48:24;;;;;;;19.70;3.30;;;8.40;99.90;;;;;;5038574;28;20060;-65
2023/05/29 02:50:50;;;;;;;19.60;3.60;;;8.30;99.90;;;;;;5045860;28;20029;-64
2023/05/29 02:53:15;;;;;;;18.35;3.92;;;8.30;99.90;;;;;;5072945;28;20098;-65
2023/05/29 02:55:42;;;;;;;21.17;3.38;;;8.30;99.90;;;;;;5042048;28;20048;-64
2023/05/29 02:58:08;;;;;;;24.10;3.92;;;8.30;99.90;;;;;;5038612;28;20381;-64
2023/05/29 03:00:34;;;;;;;23.33;3.97;;;8.30;99.90;;;;;;5039348;28;20086;-64
2023/05/29 03:03:00;;;;;;;22.10;3.90;;;8.30;99.90;;;;;;5040459;28;20155;-64
2023/05/29 03:05:26;;;;;;;30.50;3.75;;;8.30;99.90;;;;;;5072888;28;20135;-64
2023/05/29 03:07:51;;;;;;;22.65;3.75;;;8.30;99.90;;;;;;5034388;28;20144;-65
2023/05/29 03:10:17;;;;;;;26.27;4.45;;;8.20;99.90;;;;;;5073445;28;20118;-64
2023/05/29 03:12:43;;;;;;;22.00;3.70;;;8.30;99.90;;;;;;5069448;28;20399;-63
2023/05/29 03:15:09;;;;;;;17.38;3.75;;;8.20;99.90;;;;;;5042409;28;20079;-63
2023/05/29 03:17:38;;;;;;;28.00;3.88;;;8.20;99.90;;;;;;5040778;28;20116;-63
2023/05/29 03:20:10;;;;;;;22.15;4.00;;;8.10;99.90;;;;;;5042121;28;20072;-64
2023/05/29 03:22:36;;;;;;;;;;;8.00;99.90;;;;;;5041999;28;20230;-63
2023/05/29 03:25:02;;;;;;;18.55;3.20;;;7.90;99.90;;;;;;5044393;28;19925;-64
2023/05/29 03:27:29;;;;;;;20.75;3.75;;;7.90;99.90;;;;;;5040841;28;20033;-64
2023/05/29 03:29:55;;;;;;;15.07;3.97;;;7.80;99.90;;;;;;5044369;28;20040;-64
2023/05/29 03:32:20;;;;;;;20.70;3.30;;;7.80;99.90;;;;;;5074413;28;20037;-64
2023/05/29 03:34:47;;;;;;;24.65;3.80;;;7.70;99.90;;;;;;5041238;28;20041;-63
2023/05/29 03:37:13;;;;;;;18.55;4.50;;;7.60;99.90;;;;;;5036306;28;20033;-64
2023/05/29 03:39:38;;;;;;;22.52;3.47;;;7.50;99.90;;;;;;5075861;28;20053;-63
2023/05/29 03:42:04;;;;;;;20.52;4.05;;;7.50;99.90;;;;;;5044058;28;20201;-63
2023/05/29 03:44:30;;;;;;;19.75;3.83;;;7.40;99.90;;;;;;5076320;28;20037;-63
2023/05/29 03:46:55;;;;;;;20.60;3.70;;;7.40;99.90;;;;;;5074039;28;20037;-64
2023/05/29 03:49:21;;;;;;;20.63;3.88;;;7.30;99.90;;;;;;5042062;28;20059;-64
2023/05/29 03:51:46;;;;;;;20.27;3.75;;;7.30;99.90;;;;;;5043556;28;20056;-64
2023/05/29 03:54:12;;;;;;;19.77;3.60;;;7.30;99.90;;;;;;5039738;28;20037;-63
2023/05/29 03:56:38;;;;;;;25.98;4.60;;;7.30;99.90;;;;;;5042582;28;20472;-64
2023/05/29 03:59:03;;;;;;;20.20;4.20;;;7.40;99.90;;;;;;5041981;28;20475;-64
2023/05/29 04:01:29;;;;;;;20.85;3.88;;;7.40;99.90;;;;;;5038446;28;20100;-64
2023/05/29 04:03:55;;;;;;;22.20;4.20;;;7.40;99.90;;;;;;5027742;28;20377;-65
2023/05/29 04:06:21;;;;;;;20.88;4.18;;;7.40;99.90;;;;;;5042244;28;20041;-64
2023/05/29 04:08:47;;;;;;;22.63;4.70;;;7.40;99.90;;;;;;5035192;28;20047;-64
2023/05/29 04:11:13;;;;;;;17.48;3.92;;;7.50;99.90;;;;;;5023439;28;20472;-64
2023/05/29 04:13:39;;;;;;;18.20;3.80;;;7.50;99.90;;;;;;5038431;28;20120;-63
2023/05/29 04:16:05;;;;;;;16.08;4.00;;;7.50;99.90;;;;;;5038763;28;20037;-64
2023/05/29 04:18:31;;;;;;;20.85;4.20;;;7.60;99.90;;;;;;5033128;28;20216;-65
2023/05/29 04:20:57;;;;;;;22.65;4.13;;;7.60;99.90;;;;;;5042479;28;20037;-65
2023/05/29 04:23:22;;;;;;;23.60;3.85;;;7.70;99.90;;;;;;5038876;28;20061;-65
2023/05/29 04:25:50;;;;;;;21.77;4.18;;;7.80;99.90;;;;;;5041766;28;20415;-64
2023/05/29 04:28:16;;;;;;;22.80;4.38;;;7.80;99.90;;;;;;5038914;28;20056;-64
2023/05/29 04:30:42;;;;;;;26.25;4.35;;;7.90;99.90;;;;;;5033445;28;20044;-64
2023/05/29 04:33:09;;;;;;;22.77;4.50;;;7.90;99.90;;;;;;5072216;28;20123;-64
2023/05/29 04:35:35;;;;;;;15.48;3.50;;;8.00;99.90;;;;;;5041063;28;20053;-64
2023/05/29 04:38:01;;;;;;;25.92;4.18;;;8.00;99.90;;;;;;5037901;28;20932;-64
2023/05/29 04:40:26;;;;;;;23.00;4.82;;;8.10;99.90;;;;;;5070316;28;20488;-64
2023/05/29 04:42:52;;;;;;;18.92;3.70;;;8.10;99.90;;;;;;5036868;28;20480;-63
2023/05/29 04:45:20;;;;;;;17.25;3.50;;;8.20;99.90;;;;;;5040644;28;20044;-65
2023/05/29 04:47:46;;;;;;;19.38;3.78;;;8.20;99.90;;;;;;5069869;28;20119;-64
2023/05/29 04:50:16;;;;;;;24.40;3.45;;;8.40;99.90;;;;;;5034595;28;20488;-64
2023/05/29 04:52:43;;;;;;;23.83;3.85;;;8.30;99.90;;;;;;5035058;28;20412;-64
2023/05/29 04:55:10;;;;;;;24.85;4.35;;;8.30;99.90;;;;;;5042468;28;20500;-63
2023/05/29 04:57:35;;;;;;;24.48;4.05;;;8.40;99.90;;;;;;5068794;28;20045;-63
2023/05/29 05:00:06;;;;;;;19.38;4.63;;;8.40;99.90;;;;;;5037619;28;20095;-63
2023/05/29 05:02:32;;;;;;;22.17;4.05;;;8.50;99.90;;;;;;5035147;28;20102;-64
2023/05/29 05:04:58;;;;;;;29.73;4.22;;;8.50;99.90;;;;;;5038709;28;20084;-63
2023/05/29 05:07:24;;;;;;;20.00;4.25;;;8.60;99.90;;;;;;5065897;28;20040;-64
2023/05/29 05:09:50;;;;;;;12.82;3.42;;;8.70;99.90;;;;;;5072498;28;20743;-64
2023/05/29 05:12:15;;;;;;;17.45;4.22;;;8.70;99.90;;;;;;5048250;28;20045;-64
2023/05/29 05:14:41;;;;;;;19.13;3.70;;;8.80;99.90;;;;;;5039090;28;20082;-64
2023/05/29 05:17:07;;;;;;;23.13;4.25;;;8.80;99.90;;;;;;5069655;28;20492;-64
2023/05/29 05:19:32;;;;;;;26.35;5.28;;;8.90;99.90;;;;;;5031079;28;20045;-64
2023/05/29 05:21:58;;;;;;;21.40;4.70;;;9.00;99.90;;;;;;5035042;28;20037;-63
2023/05/29 05:24:23;;;;;;;22.25;5.05;;;9.10;99.90;;;;;;5040090;28;20169;-64
2023/05/29 05:26:49;;;;;;;23.02;4.47;;;9.20;99.90;;;;;;5039985;28;20103;-64
2023/05/29 05:29:15;;;;;;;30.85;4.50;;;9.30;99.90;;;;;;5070548;28;20057;-64
2023/05/29 05:31:40;;;;;;;20.88;5.00;;;9.40;99.90;;;;;;5070288;28;20049;-64
2023/05/29 05:34:06;;;;;;;22.67;4.05;;;9.50;99.90;;;;;;5038782;28;20131;-64
2023/05/29 05:36:32;;;;;;;28.17;4.40;;;9.60;99.90;;;;;;5072583;28;20070;-64
2023/05/29 05:38:58;;;;;;;16.75;3.72;;;9.70;99.90;;;;;;5065910;28;20071;-65
2023/05/29 05:41:23;;;;;;;17.23;3.70;;;9.80;99.90;;;;;;5066728;28;20045;-65
2023/05/29 05:43:50;;;;;;;20.15;4.47;;;9.90;99.90;;;;;;5067174;28;20139;-64
2023/05/29 05:46:17;;;;;;;19.05;3.80;;;10.00;99.90;;;;;;5035649;28;20089;-63
2023/05/29 05:48:42;;;;;;;21.52;3.70;;;10.20;99.90;;;;;;5037872;28;20059;-63
2023/05/29 05:51:08;;;;;;;23.45;4.07;;;10.30;99.90;;;;;;5037848;28;20038;-64
2023/05/29 05:53:33;;;;;;;21.48;4.35;;;10.50;99.90;;;;;;5071104;28;20106;-64
2023/05/29 05:56:00;;;;;;;24.40;3.83;;;10.60;99.90;;;;;;5039624;28;20045;-65
2023/05/29 05:58:25;;;;;;;18.05;3.88;;;10.80;99.90;;;;;;5039793;28;20033;-64
2023/05/29 06:00:52;;;;;;;16.90;3.42;;;10.90;99.90;;;;;;5027082;28;20404;-65
2023/05/29 06:03:18;;;;;;;17.10;3.83;;;11.00;99.90;;;;;;5030145;28;20083;-64
2023/05/29 06:05:43;;;;;;;14.05;3.63;;;11.10;99.90;;;;;;5037368;28;20065;-65
2023/05/29 06:08:09;;;;;;;25.83;3.80;;;11.30;99.90;;;;;;5072319;28;20116;-65
2023/05/29 06:10:34;;;;;;;25.08;4.40;;;11.50;99.90;;;;;;5039435;28;20118;-65
2023/05/29 06:13:00;;;;;;;25.58;3.92;;;11.50;99.90;;;;;;5041641;28;20091;-65
2023/05/29 06:15:26;;;;;;;21.02;4.15;;;11.70;99.90;;;;;;5043686;28;20061;-65
2023/05/29 06:17:52;;;;;;;22.27;3.50;;;11.80;99.90;;;;;;5040248;28;20423;-65
2023/05/29 06:20:19;;;;;;;20.95;3.63;;;11.90;99.90;;;;;;5070528;28;20063;-66
2023/05/29 06:22:49;;;;;;;20.50;3.88;;;12.00;99.90;;;;;;5070887;28;20480;-64
2023/05/29 06:25:19;;;;;;;22.40;3.85;;;12.10;99.90;;;;;;5035627;28;20057;-65
2023/05/29 06:27:45;;;;;;;16.30;3.45;;;12.30;99.90;;;;;;5031910;28;20068;-66
2023/05/29 06:30:11;;;;;;;22.20;3.67;;;12.50;99.90;;;;;;5073018;28;20080;-66
2023/05/29 06:32:37;;;;;;;16.90;3.58;;;12.50;99.90;;;;;;5038759;28;20048;-66
2023/05/29 06:35:03;;;;;;;17.02;3.30;;;12.70;99.90;;;;;;5034949;28;20567;-64
2023/05/29 06:37:29;;;;;;;13.85;3.42;;;12.70;99.90;;;;;;5036939;28;20115;-65
2023/05/29 06:39:54;;;;;;;20.63;3.80;;;12.80;99.90;;;;;;5073559;28;20552;-64
2023/05/29 06:42:20;;;;;;;22.73;3.40;;;12.80;99.90;;;;;;5036932;28;20037;-65
2023/05/29 06:44:45;;;;;;;18.27;3.70;;;12.90;99.90;;;;;;5070386;28;20037;-65
2023/05/29 06:47:11;;;;;;;17.00;3.42;;;13.10;99.90;;;;;;5037927;28;20420;-65
2023/05/29 06:49:37;;;;;;;17.55;4.10;;;13.20;99.90;;;;;;5068190;28;20040;-66
2023/05/29 06:52:02;;;;;;;21.80;4.57;;;13.20;99.90;;;;;;5032718;28;20083;-65
2023/05/29 06:54:28;;;;;;;20.15;3.67;;;13.20;99.90;;;;;;5038015;28;20048;-65
2023/05/29 06:56:53;;;;;;;21.15;4.05;;;13.40;99.90;;;;;;5067480;28;20132;-66
2023/05/29 06:59:20;;;;;;;18.33;4.07;;;13.50;99.90;;;;;;5033248;28;20033;-64
2023/05/29 07:01:46;;;;;;;15.38;3.83;;;13.60;99.90;;;;;;5035509;28;20037;-65
2023/05/29 07:04:11;;;;;;;19.00;3.47;;;13.60;99.90;;;;;;5067744;28;20041;-65
2023/05/29 07:06:38;;;;;;;22.92;3.95;;;13.80;99.90;;;;;;5039378;28;20041;-66
2023/05/29 07:09:04;;;;;;;20.92;3.95;;;13.80;99.90;;;;;;5038123;28;20037;-66
2023/05/29 07:11:30;;;;;;;25.58;4.57;;;13.80;99.90;;;;;;5029771;28;20067;-65
2023/05/29 07:13:55;;;;;;;19.45;3.88;;;13.80;99.90;;;;;;5022385;28;20077;-66
2023/05/29 07:16:21;;;;;;;19.83;4.28;;;13.80;99.90;;;;;;5071282;28;20044;-63
2023/05/29 07:18:46;;;;;;;20.52;4.65;;;13.80;99.90;;;;;;5028027;28;20126;-65
2023/05/29 07:21:12;;;;;;;21.48;4.43;;;13.70;99.90;;;;;;5036237;28;20037;-66
2023/05/29 07:23:39;;;;;;;23.73;4.13;;;13.70;99.90;;;;;;5069403;28;20032;-64
2023/05/29 07:26:04;;;;;;;25.77;4.22;;;13.60;99.90;;;;;;5030978;28;20045;-64
2023/05/29 07:28:30;;;;;;;22.50;4.07;;;13.70;99.90;;;;;;5071866;28;20483;-64
2023/05/29 07:30:56;;;;;;;19.92;3.97;;;13.70;99.90;;;;;;5043291;28;20045;-65
2023/05/29 07:33:21;;;;;;;26.88;5.00;;;13.70;99.90;;;;;;5033170;28;20078;-64
2023/05/29 07:35:47;;;;;;;21.23;4.22;;;13.80;99.90;;;;;;5040563;28;20049;-66
2023/05/29 07:38:13;;;;;;;18.13;3.55;;;13.80;99.90;;;;;;5036894;28;20056;-66
2023/05/29 07:40:39;;;;;;;19.52;4.28;;;13.80;99.90;;;;;;5068571;28;20083;-65
2023/05/29 07:43:04;;;;;;;24.08;4.47;;;13.80;99.90;;;;;;5075336;28;20464;-66
2023/05/29 07:45:30;;;;;;;22.67;4.35;;;13.80;99.90;;;;;;5032340;28;20033;-65
2023/05/29 07:47:55;;;;;;;27.13;5.55;;;13.70;99.90;;;;;;5068489;28;20035;-65
2023/05/29 07:50:21;;;;;;;23.55;4.00;;;13.90;99.90;;;;;;5068211;28;20073;-65
2023/05/29 07:52:46;;;;;;;21.10;3.70;;;14.00;99.90;;;;;;5034250;28;20186;-67
2023/05/29 07:55:12;;;;;;;21.80;4.65;;;14.10;99.90;;;;;;5034710;28;20099;-66
2023/05/29 07:57:39;;;;;;;18.58;4.53;;;14.00;99.90;;;;;;5066669;28;20056;-66
2023/05/29 08:00:08;;;;;;;25.23;4.40;;;13.90;99.90;;;;;;5038958;28;20514;-64
2023/05/29 08:02:36;;;;;;;22.58;4.75;;;14.00;99.90;;;;;;5076153;28;20110;-66
2023/05/29 08:05:03;;;;;;;15.90;3.95;;;14.00;99.90;;;;;;5048678;28;20452;-66
2023/05/29 08:07:29;;;;;;;19.17;4.60;;;14.10;99.90;;;;;;5047132;28;20174;-65
2023/05/29 08:09:55;;;;;;;28.33;5.10;;;14.20;99.90;;;;;;5075817;28;20445;-65
2023/05/29 08:12:21;;;;;;;22.90;4.30;;;14.30;99.90;;;;;;5084049;28;20049;-67
2023/05/29 08:14:46;;;;;;;30.33;4.70;;;14.40;99.90;;;;;;5042855;28;20092;-66
2023/05/29 08:17:12;;;;;;;31.13;4.55;;;14.50;99.90;;;;;;5061947;28;20672;-66
2023/05/29 08:19:37;;;;;;;21.60;4.63;;;14.70;99.90;;;;;;5039388;28;20182;-66
2023/05/29 08:22:03;;;;;;;19.90;5.18;;;14.70;99.90;;;;;;5049030;28;20061;-67
2023/05/29 08:24:28;;;;;;;19.05;4.45;;;14.80;99.90;;;;;;5037441;28;20055;-66
2023/05/29 08:26:54;;;;;;;21.65;5.45;;;14.90;99.90;;;;;;5046166;28;20039;-65
2023/05/29 08:29:20;;;;;;;26.80;4.93;;;15.00;99.90;;;;;;5049326;28;20155;-67
2023/05/29 08:31:45;;;;;;;26.02;4.63;;;15.20;99.90;;;;;;5044252;28;20037;-66
2023/05/29 08:34:11;;;;;;;20.92;4.65;;;15.30;99.90;;;;;;5043001;28;20037;-66
2023/05/29 08:36:37;;;;;;;19.70;4.43;;;15.40;99.90;;;;;;5050289;28;20559;-66
2023/05/29 08:39:03;;;;;;;30.25;5.47;;;15.40;99.90;;;;;;5045323;28;20468;-66
2023/05/29 08:41:41;;;;;;;26.98;4.20;;;15.40;99.90;;;;;;5042101;28;20029;-66
2023/05/29 08:44:11;;;;;;;19.52;4.50;;;15.40;99.90;;;;;;5045256;28;20619;-65
2023/05/29 08:46:38;;;;;;;26.67;5.07;;;15.30;99.90;;;;;;5015302;28;20048;-67
2023/05/29 08:49:04;;;;;;;24.80;4.85;;;15.20;99.90;;;;;;5038975;28;20483;-66
2023/05/29 08:51:34;;;;;;;23.85;5.13;;;15.20;99.90;;;;;;5072020;28;20073;-66
2023/05/29 08:54:00;;;;;;;26.80;4.78;;;15.10;99.90;;;;;;5041242;28;20388;-66
2023/05/29 08:56:25;;;;;;;25.30;4.63;;;15.20;99.90;;;;;;5041177;28;20462;-67
2023/05/29 08:58:52;;;;;;;28.13;4.78;;;15.10;99.90;;;;;;5047025;28;20075;-67
2023/05/29 09:01:20;;;;;;;20.23;4.40;;;15.10;99.90;;;;;;5043264;28;20055;-66
2023/05/29 09:03:46;;;;;;;22.25;3.92;;;15.10;99.90;;;;;;5045810;28;20045;-66
2023/05/29 09:06:12;;;;;;;25.20;5.63;;;15.20;99.90;;;;;;5037813;28;20051;-66
2023/05/29 09:08:38;;;;;;;20.70;4.45;;;15.20;99.90;;;;;;5030432;28;20033;-66
2023/05/29 09:11:04;;;;;;;21.42;4.93;;;15.30;99.90;;;;;;5070897;28;20621;-65
2023/05/29 09:13:29;;;;;;;22.17;4.80;;;15.40;99.90;;;;;;5049392;28;20082;-67
2023/05/29 09:15:59;;;;;;;21.40;3.63;;;15.10;99.90;;;;;;5043932;28;20040;-69
2023/05/29 09:18:29;;;;;;;26.80;4.53;;;15.20;99.90;;;;;;5030445;28;20037;-66
2023/05/29 09:20:55;;;;;;;19.83;4.63;;;15.10;99.90;;;;;;5065911;28;20476;-66
2023/05/29 09:23:20;;;;;;;23.75;5.10;;;15.10;99.90;;;;;;5033181;28;20067;-65
2023/05/29 09:25:52;;;;;;;23.23;4.78;;;15.20;99.90;;;;;;5042701;28;20075;-67
2023/05/29 09:28:18;;;;;;;24.23;5.65;;;15.20;99.90;;;;;;5047923;28;20440;-67
2023/05/29 09:30:45;;;;;;;21.73;4.60;;;15.40;99.90;;;;;;5044258;28;20155;-65
2023/05/29 09:33:13;;;;;;;21.83;4.88;;;15.40;99.90;;;;;;5047930;28;20296;-67
2023/05/29 09:35:41;;;;;;;22.27;4.80;;;15.60;99.90;;;;;;5070333;28;20053;-66
2023/05/29 09:38:09;;;;;;;17.27;3.72;;;15.70;99.90;;;;;;5039013;28;20076;-67
2023/05/29 09:40:36;;;;;;;20.90;4.47;;;15.70;99.90;;;;;;5078299;28;20041;-68
2023/05/29 09:43:18;;;;;;;21.10;5.15;;;15.60;99.90;;;;;;5044985;28;20041;-68
2023/05/29 09:45:48;;;;;;;24.50;4.25;;;15.60;99.90;;;;;;5042918;28;20029;-65
2023/05/29 09:48:22;;;;;;;28.52;4.53;;;15.70;99.90;;;;;;5043819;28;20090;-65
2023/05/29 09:50:48;;;;;;;23.83;4.50;;;15.90;99.90;;;;;;5032050;28;20420;-66
2023/05/29 09:53:24;;;;;;;20.80;4.40;;;15.90;99.90;;;;;;5078530;28;20418;-65
2023/05/29 09:55:50;;;;;;;24.65;4.70;;;16.00;99.90;;;;;;5049199;28;20041;-66
2023/05/29 09:58:20;;;;;;;25.35;4.78;;;16.10;99.90;;;;;;5047653;28;20056;-66
2023/05/29 10:00:47;;;;;;;23.88;4.78;;;16.20;99.90;;;;;;5077896;28;20055;-67
2023/05/29 10:03:12;;;;;;;21.92;4.22;;;16.10;99.90;;;;;;5048627;28;20052;-66
2023/05/29 10:05:39;;;;;;;23.75;4.57;;;16.10;99.90;;;;;;5048611;28;20028;-68
2023/05/29 10:08:11;;;;;;;22.38;4.90;;;16.00;99.90;;;;;;5040411;28;20084;-64
2023/05/29 10:10:40;;;;;;;29.17;5.20;;;16.10;99.90;;;;;;5034994;28;20365;-65
2023/05/29 10:13:09;;;;;;;24.50;4.35;;;16.10;99.90;;;;;;5074903;28;20082;-66
2023/05/29 10:15:36;;;;;;;21.13;4.03;;;16.10;99.90;;;;;;5040849;28;20385;-64
2023/05/29 10:18:23;;;;;;;20.70;4.38;;;16.10;99.90;;;;;;5040361;28;20621;-66
2023/05/29 10:20:56;;;;;;;19.48;4.43;;;16.10;99.90;;;;;;5043997;28;20084;-65
2023/05/29 10:23:24;;;;;;;22.58;4.30;;;16.20;99.90;;;;;;5075371;28;20123;-67
2023/05/29 10:25:56;;;;;;;19.35;4.32;;;16.30;99.90;;;;;;5040840;28;20116;-66
2023/05/29 10:28:23;;;;;;;21.20;4.22;;;16.50;99.90;;;;;;5044359;28;20090;-66
2023/05/29 10:30:51;;;;;;;22.90;4.20;;;16.60;99.90;;;;;;5040236;28;20403;-67
2023/05/29 10:33:42;;;;;;;20.40;4.55;;;16.70;99.90;;;;;;5045817;28;20052;-67
2023/05/29 10:36:13;;;;;;;21.23;4.20;;;16.70;99.90;;;;;;5067118;28;20040;-67
2023/05/29 10:38:46;;;;;;;25.55;4.38;;;16.60;99.90;;;;;;5037703;28;20079;-67
2023/05/29 10:41:25;;;;;;;23.42;4.72;;;16.40;99.90;;;;;;5070703;28;20040;-67
2023/05/29 10:43:55;;;;;;;28.17;4.32;;;16.40;99.90;;;;;;5036182;28;20385;-66
2023/05/29 10:46:21;;;;;;;19.45;3.78;;;16.20;99.90;;;;;;5054905;28;20045;-66
2023/05/29 10:48:49;;;;;;;24.15;5.10;;;16.10;99.90;;;;;;5070944;28;20064;-66
2023/05/29 10:51:31;;;;;;;25.23;4.35;;;16.10;99.90;;;;;;5072791;28;20441;-67
2023/05/29 10:53:56;;;;;;;19.92;3.67;;;16.10;99.90;;;;;;5038175;28;20391;-67
2023/05/29 10:56:29;;;;;;;23.80;4.15;;;16.10;99.90;;;;;;5070890;28;20045;-68
2023/05/29 10:58:57;;;;;;;25.83;4.72;;;16.00;99.90;;;;;;5075247;28;20045;-66
2023/05/29 11:01:28;;;;;;;27.15;5.05;;;16.00;99.90;;;;;;5052383;28;20559;-67
2023/05/29 11:04:13;;;;;;;24.73;4.22;;;16.10;99.90;;;;;;5032135;28;20041;-66
2023/05/29 11:06:39;;;;;;;26.88;5.20;;;16.20;99.90;;;;;;5038634;28;20044;-67
2023/05/29 11:09:25;;;;;;;25.77;3.78;;;16.30;99.90;;;;;;5037649;28;20033;-68
2023/05/29 11:12:35;;;;;;;23.85;4.88;;;16.50;99.90;;;;;;5028790;28;21198;-68
2023/05/29 11:15:05;;;;;;;24.70;4.38;;;16.50;99.90;;;;;;5039973;28;20403;-66
2023/05/29 11:17:37;;;;;;;20.42;4.00;;;16.70;99.90;;;;;;5035699;28;20488;-65
2023/05/29 11:20:07;;;;;;;22.33;4.23;;;16.60;99.90;;;;;;5041002;28;20094;-65
2023/05/29 11:22:39;;;;;;;17.15;3.67;;;16.60;99.90;;;;;;5041790;28;20426;-66
2023/05/29 11:25:05;;;;;;;23.85;3.47;;;16.70;99.90;;;;;;5030118;28;20125;-66
2023/05/29 11:27:32;;;;;;;19.60;3.97;;;16.70;99.90;;;;;;5036683;28;20045;-65
2023/05/29 11:29:58;;;;;;;18.33;3.83;;;16.70;99.90;;;;;;5038763;28;20087;-65
2023/05/29 11:32:27;;;;;;;23.75;4.18;;;16.70;99.90;;;;;;5034003;28;20547;-65
2023/05/29 11:34:56;;;;;;;24.48;4.18;;;16.60;99.90;;;;;;5034566;28;20044;-66
2023/05/29 11:37:23;;;;;;;25.90;4.00;;;16.50;99.90;;;;;;5068518;28;20048;-66
2023/05/29 11:39:49;;;;;;;21.40;4.40;;;16.60;99.90;;;;;;5036972;28;20073;-66
2023/05/29 11:42:15;;;;;;;26.83;4.07;;;16.70;99.90;;;;;;5074959;28;20509;-64
2023/05/29 11:44:41;;;;;;;24.60;4.47;;;16.60;99.90;;;;;;5040305;28;20045;-66
2023/05/29 11:47:08;;;;;;;24.80;4.95;;;16.60;99.90;;;;;;5045847;28;20048;-66
2023/05/29 11:49:37;;;;;;;22.70;4.95;;;16.70;99.90;;;;;;5074445;28;20044;-66
2023/05/29 11:52:11;;;;;;;23.75;4.65;;;16.90;99.90;;;;;;5067978;28;20093;-66
2023/05/29 11:54:36;;;;;;;19.83;4.22;;;17.00;99.90;;;;;;5072732;28;21531;-65
2023/05/29 11:57:05;;;;;;;20.35;4.10;;;17.00;99.90;;;;;;5073061;28;20048;-65
2023/05/29 11:59:31;;;;;;;19.38;4.25;;;17.00;99.90;;;;;;5038761;28;20053;-66
2023/05/29 12:01:57;;;;;;;24.50;4.47;;;17.10;99.90;;;;;;5036739;28;20039;-67
2023/05/29 12:04:22;;;;;;;18.02;4.38;;;17.10;99.90;;;;;;5072456;28;20037;-68
2023/05/29 12:06:48;;;;;;;24.10;4.82;;;17.00;99.90;;;;;;5037927;28;20033;-66
2023/05/29 12:09:27;;;;;;;17.13;4.15;;;16.80;99.90;;;;;;5039933;28;20063;-65
2023/05/29 12:12:02;;;;;;;21.85;3.40;;;16.70;99.90;;;;;;5073922;28;20036;-67
2023/05/29 12:14:28;;;;;;;17.15;3.83;;;16.60;99.90;;;;;;5045510;28;20049;-69
2023/05/29 12:16:54;;;;;;;26.42;4.85;;;16.40;99.90;;;;;;5076720;28;20446;-67
2023/05/29 12:19:20;;;;;;;23.60;4.43;;;16.30;99.90;;;;;;5065725;28;20048;-66
2023/05/29 12:21:45;;;;;;;17.05;4.00;;;16.20;99.90;;;;;;5047418;28;20403;-65
2023/05/29 12:24:11;;;;;;;22.77;4.32;;;16.20;99.90;;;;;;5071651;28;20032;-63
2023/05/29 12:26:37;;;;;;;22.20;4.25;;;16.40;99.90;;;;;;5066485;28;20908;-67
2023/05/29 12:29:06;;;;;;;20.25;4.70;;;16.50;99.90;;;;;;5042845;28;20069;-66
2023/05/29 12:31:33;;;;;;;20.67;3.97;;;16.70;99.90;;;;;;5074329;28;20088;-67
2023/05/29 12:34:19;;;;;;;26.55;5.00;;;16.80;99.90;;;;;;5039951;28;20487;-65
2023/05/29 12:36:45;;;;;;;26.80;4.35;;;16.90;99.90;;;;;;5072764;28;20041;-66
2023/05/29 12:39:11;;;;;;;20.35;4.18;;;17.00;99.90;;;;;;5041165;28;20033;-65
2023/05/29 12:41:38;;;;;;;19.45;4.03;;;16.90;99.90;;;;;;5042291;28;20037;-65
2023/05/29 12:44:06;;;;;;;13.45;4.22;;;17.00;99.90;;;;;;5045188;28;20098;-67